sensor_id;sensor_type;location;lat;lon;timestamp;temperature;humidity
18906;DHT22;9585;51.018;4.282;2023-11-19T00:00:32;12.20;99.90
18906;DHT22;9585;51.018;4.282;2023-11-19T00:03:00;12.30;99.90
18906;DHT22;9585;51.018;4.282;2023-11-19T00:05:28;12.30;99.90
18906;DHT22;9585;51.018;4.282;2023-11-19T00:07:56;12.40;99.90
18906;DHT22;9585;51.018;4.282;2023-11-19T00:10:25;12.40;99.90
18906;DHT22;9585;51.018;4.282;2023-11-19T00:12:53;12.30;99.90
18906;DHT22;9585;51.018;4.282;2023-11-19T00:15:23;12.30;99.90
18906;DHT22;9585;51.018;4.282;2023-11-19T00:17:51;12.30;99.90
18906;DHT22;9585;51.018;4.282;2023-11-19T00:20:19;12.30;99.90
18906;DHT22;9585;51.018;4.282;2023-11-19T00:22:48;12.30;99.90
18906;DHT22;9585;51.018;4.282;2023-11-19T00:25:17;12.30;99.90
18906;DHT22;9585;51.018;4.282;2023-11-19T00:27:47;12.40;99.90
18906;DHT22;9585;51.018;4.282;2023-11-19T00:30:15;12.30;99.90
18906;DHT22;9585;51.018;4.282;2023-11-19T00:32:43;12.40;99.90
18906;DHT22;9585;51.018;4.282;2023-11-19T00:35:11;12.40;99.90
18906;DHT22;9585;51.018;4.282;2023-11-19T00:37:41;12.40;99.90
18906;DHT22;9585;51.018;4.282;2023-11-19T00:40:12;12.40;99.90
18906;DHT22;9585;51.018;4.282;2023-11-19T00:42:41;12.30;99.90
18906;DHT22;9585;51.018;4.282;2023-11-19T00:45:11;12.30;99.90
18906;DHT22;9585;51.018;4.282;2023-11-19T00:47:38;12.30;99.90
18906;DHT22;9585;51.018;4.282;2023-11-19T00:50:07;12.30;99.90
18906;DHT22;9585;51.018;4.282;2023-11-19T00:52:37;12.30;99.90
18906;DHT22;9585;51.018;4.282;2023-11-19T00:55:06;12.40;99.90
18906;DHT22;9585;51.018;4.282;2023-11-19T00:57:33;12.40;99.90
18906;DHT22;9585;51.018;4.282;2023-11-19T01:00:01;12.50;99.90
18906;DHT22;9585;51.018;4.282;2023-11-19T01:02:51;12.50;99.90
18906;DHT22;9585;51.018;4.282;2023-11-19T01:05:19;12.50;99.90
18906;DHT22;9585;51.018;4.282;2023-11-19T01:07:48;12.50;99.90
18906;DHT22;9585;51.018;4.282;2023-11-19T01:10:16;12.50;99.90
18906;DHT22;9585;51.018;4.282;2023-11-19T01:12:45;12.50;99.90
18906;DHT22;9585;51.018;4.282;2023-11-19T01:15:12;12.50;99.90
18906;DHT22;9585;51.018;4.282;2023-11-19T01:17:42;12.50;99.90
18906;DHT22;9585;51.018;4.282;2023-11-19T01:20:10;12.50;99.90
18906;DHT22;9585;51.018;4.282;2023-11-19T01:22:39;12.60;99.90
18906;DHT22;9585;51.018;4.282;2023-11-19T01:25:07;12.50;99.90
18906;DHT22;9585;51.018;4.282;2023-11-19T01:27:35;12.60;99.90
18906;DHT22;9585;51.018;4.282;2023-11-19T01:30:04;12.60;99.90
18906;DHT22;9585;51.018;4.282;2023-11-19T01:32:35;12.60;99.90
18906;DHT22;9585;51.018;4.282;2023-11-19T01:35:06;12.60;99.90
18906;DHT22;9585;51.018;4.282;2023-11-19T01:37:34;12.40;99.90
18906;DHT22;9585;51.018;4.282;2023-11-19T01:40:02;12.40;99.90
18906;DHT22;9585;51.018;4.282;2023-11-19T01:42:36;12.30;99.90
18906;DHT22;9585;51.018;4.282;2023-11-19T01:45:05;12.30;99.90
18906;DHT22;9585;51.018;4.282;2023-11-19T01:47:35;12.30;99.90
18906;DHT22;9585;51.018;4.282;2023-11-19T01:50:05;12.30;99.90
18906;DHT22;9585;51.018;4.282;2023-11-19T01:52:34;12.20;99.90
18906;DHT22;9585;51.018;4.282;2023-11-19T01:55:04;12.20;99.90
18906;DHT22;9585;51.018;4.282;2023-11-19T01:57:33;12.10;99.90
18906;DHT22;9585;51.018;4.282;2023-11-19T02:00:04;12.10;99.90
18906;DHT22;9585;51.018;4.282;2023-11-19T02:02:33;12.00;99.90
18906;DHT22;9585;51.018;4.282;2023-11-19T02:05:01;12.00;99.90
18906;DHT22;9585;51.018;4.282;2023-11-19T02:07:30;12.00;99.90
18906;DHT22;9585;51.018;4.282;2023-11-19T02:09:58;11.90;99.90
18906;DHT22;9585;51.018;4.282;2023-11-19T02:12:27;11.90;99.90
18906;DHT22;9585;51.018;4.282;2023-11-19T02:14:55;11.80;99.90
18906;DHT22;9585;51.018;4.282;2023-11-19T02:17:27;11.80;99.90
18906;DHT22;9585;51.018;4.282;2023-11-19T02:19:57;11.80;99.90
18906;DHT22;9585;51.018;4.282;2023-11-19T02:22:25;11.80;99.90
18906;DHT22;9585;51.018;4.282;2023-11-19T02:24:59;11.80;99.90
18906;DHT22;9585;51.018;4.282;2023-11-19T02:27:40;11.80;99.90
18906;DHT22;9585;51.018;4.282;2023-11-19T02:30:10;11.80;99.90
18906;DHT22;9585;51.018;4.282;2023-11-19T02:32:41;11.80;99.90
18906;DHT22;9585;51.018;4.282;2023-11-19T02:35:09;11.60;99.90
18906;DHT22;9585;51.018;4.282;2023-11-19T02:37:38;11.60;99.90
18906;DHT22;9585;51.018;4.282;2023-11-19T02:40:07;11.60;99.90
18906;DHT22;9585;51.018;4.282;2023-11-19T02:42:35;11.60;99.90
18906;DHT22;9585;51.018;4.282;2023-11-19T02:45:05;11.60;99.90
18906;DHT22;9585;51.018;4.282;2023-11-19T02:47:34;11.60;99.90
18906;DHT22;9585;51.018;4.282;2023-11-19T02:50:02;11.60;99.90
18906;DHT22;9585;51.018;4.282;2023-11-19T02:52:33;11.60;99.90
18906;DHT22;9585;51.018;4.282;2023-11-19T02:55:04;11.60;99.90
18906;DHT22;9585;51.018;4.282;2023-11-19T02:57:35;11.60;99.90
18906;DHT22;9585;51.018;4.282;2023-11-19T03:00:05;11.70;99.90
18906;DHT22;9585;51.018;4.282;2023-11-19T03:02:40;11.60;99.90
18906;DHT22;9585;51.018;4.282;2023-11-19T03:05:12;11.60;99.90
18906;DHT22;9585;51.018;4.282;2023-11-19T03:07:41;11.60;99.90
18906;DHT22;9585;51.018;4.282;2023-11-19T03:10:10;11.50;99.90
18906;DHT22;9585;51.018;4.282;2023-11-19T03:12:40;11.50;99.90
18906;DHT22;9585;51.018;4.282;2023-11-19T03:15:11;11.40;99.90
18906;DHT22;9585;51.018;4.282;2023-11-19T03:17:39;11.40;99.90
18906;DHT22;9585;51.018;4.282;2023-11-19T03:20:09;11.30;99.90
18906;DHT22;9585;51.018;4.282;2023-11-19T03:22:37;11.30;99.90
18906;DHT22;9585;51.018;4.282;2023-11-19T03:25:04;11.30;99.90
18906;DHT22;9585;51.018;4.282;2023-11-19T03:27:34;11.30;99.90
18906;DHT22;9585;51.018;4.282;2023-11-19T03:30:03;11.30;99.90
18906;DHT22;9585;51.018;4.282;2023-11-19T03:32:33;11.30;99.90
18906;DHT22;9585;51.018;4.282;2023-11-19T03:35:01;11.30;99.90
18906;DHT22;9585;51.018;4.282;2023-11-19T03:37:30;11.30;99.90
18906;DHT22;9585;51.018;4.282;2023-11-19T03:39:59;11.20;99.90
18906;DHT22;9585;51.018;4.282;2023-11-19T03:42:27;11.20;99.90
18906;DHT22;9585;51.018;4.282;2023-11-19T03:44:54;11.20;99.90
18906;DHT22;9585;51.018;4.282;2023-11-19T03:47:22;11.20;99.90
18906;DHT22;9585;51.018;4.282;2023-11-19T03:49:53;11.20;99.90
18906;DHT22;9585;51.018;4.282;2023-11-19T03:52:21;11.10;99.90
18906;DHT22;9585;51.018;4.282;2023-11-19T03:54:49;11.10;99.90
18906;DHT22;9585;51.018;4.282;2023-11-19T03:57:17;11.10;99.90
18906;DHT22;9585;51.018;4.282;2023-11-19T03:59:45;11.10;99.90
18906;DHT22;9585;51.018;4.282;2023-11-19T04:02:13;11.00;99.90
18906;DHT22;9585;51.018;4.282;2023-11-19T04:04:41;11.00;99.90
18906;DHT22;9585;51.018;4.282;2023-11-19T04:07:10;11.00;99.90
18906;DHT22;9585;51.018;4.282;2023-11-19T04:09:38;11.00;99.90
18906;DHT22;9585;51.018;4.282;2023-11-19T04:12:06;11.00;99.90
18906;DHT22;9585;51.018;4.282;2023-11-19T04:14:34;11.00;99.90
18906;DHT22;9585;51.018;4.282;2023-11-19T04:17:03;11.10;99.90
18906;DHT22;9585;51.018;4.282;2023-11-19T04:19:31;11.10;99.90
18906;DHT22;9585;51.018;4.282;2023-11-19T04:21:59;11.10;99.90
18906;DHT22;9585;51.018;4.282;2023-11-19T04:24:29;11.00;99.90
18906;DHT22;9585;51.018;4.282;2023-11-19T04:26:57;11.00;99.90
18906;DHT22;9585;51.018;4.282;2023-11-19T04:29:25;11.00;99.90
18906;DHT22;9585;51.018;4.282;2023-11-19T04:31:53;10.90;99.90
18906;DHT22;9585;51.018;4.282;2023-11-19T04:34:21;10.90;99.90
18906;DHT22;9585;51.018;4.282;2023-11-19T04:36:49;10.80;99.90
18906;DHT22;9585;51.018;4.282;2023-11-19T04:39:16;10.80;99.90
18906;DHT22;9585;51.018;4.282;2023-11-19T04:41:50;10.80;99.90
18906;DHT22;9585;51.018;4.282;2023-11-19T04:44:18;10.80;99.90
18906;DHT22;9585;51.018;4.282;2023-11-19T04:46:46;10.80;99.90
18906;DHT22;9585;51.018;4.282;2023-11-19T04:49:14;10.80;99.90
18906;DHT22;9585;51.018;4.282;2023-11-19T04:51:44;10.70;99.90
18906;DHT22;9585;51.018;4.282;2023-11-19T04:54:13;10.70;99.90
18906;DHT22;9585;51.018;4.282;2023-11-19T04:56:45;10.70;99.90
18906;DHT22;9585;51.018;4.282;2023-11-19T04:59:15;10.70;99.90
18906;DHT22;9585;51.018;4.282;2023-11-19T05:01:46;10.70;99.90
18906;DHT22;9585;51.018;4.282;2023-11-19T05:04:14;10.70;99.90
18906;DHT22;9585;51.018;4.282;2023-11-19T05:06:44;10.70;99.90
18906;DHT22;9585;51.018;4.282;2023-11-19T05:09:12;10.70;99.90
18906;DHT22;9585;51.018;4.282;2023-11-19T05:11:40;10.60;99.90
18906;DHT22;9585;51.018;4.282;2023-11-19T05:14:07;10.70;99.90
18906;DHT22;9585;51.018;4.282;2023-11-19T05:16:39;10.70;99.90
18906;DHT22;9585;51.018;4.282;2023-11-19T05:19:07;10.60;99.90
18906;DHT22;9585;51.018;4.282;2023-11-19T05:21:35;10.60;99.90
18906;DHT22;9585;51.018;4.282;2023-11-19T05:24:02;10.50;99.90
18906;DHT22;9585;51.018;4.282;2023-11-19T05:26:31;10.50;99.90
18906;DHT22;9585;51.018;4.282;2023-11-19T05:28:59;10.50;99.90
18906;DHT22;9585;51.018;4.282;2023-11-19T05:31:26;10.40;99.90
18906;DHT22;9585;51.018;4.282;2023-11-19T05:33:56;10.40;99.90
18906;DHT22;9585;51.018;4.282;2023-11-19T05:36:24;10.40;99.90
18906;DHT22;9585;51.018;4.282;2023-11-19T05:38:52;10.40;99.90
18906;DHT22;9585;51.018;4.282;2023-11-19T05:41:19;10.40;99.90
18906;DHT22;9585;51.018;4.282;2023-11-19T05:43:47;10.40;99.90
18906;DHT22;9585;51.018;4.282;2023-11-19T05:46:15;10.40;99.90
18906;DHT22;9585;51.018;4.282;2023-11-19T05:48:43;10.40;99.90
18906;DHT22;9585;51.018;4.282;2023-11-19T05:51:14;10.30;99.90
18906;DHT22;9585;51.018;4.282;2023-11-19T05:53:42;10.30;99.90
18906;DHT22;9585;51.018;4.282;2023-11-19T05:56:11;10.20;99.90
18906;DHT22;9585;51.018;4.282;2023-11-19T05:58:41;10.20;99.90
18906;DHT22;9585;51.018;4.282;2023-11-19T06:01:10;10.20;99.90
18906;DHT22;9585;51.018;4.282;2023-11-19T06:03:38;10.20;99.90
18906;DHT22;9585;51.018;4.282;2023-11-19T06:06:07;10.20;99.90
18906;DHT22;9585;51.018;4.282;2023-11-19T06:08:36;10.20;99.90
18906;DHT22;9585;51.018;4.282;2023-11-19T06:11:04;10.30;99.90
18906;DHT22;9585;51.018;4.282;2023-11-19T06:13:32;10.30;99.90
18906;DHT22;9585;51.018;4.282;2023-11-19T06:16:00;10.30;99.90
18906;DHT22;9585;51.018;4.282;2023-11-19T06:18:28;10.40;99.90
18906;DHT22;9585;51.018;4.282;2023-11-19T06:20:57;10.40;99.90
18906;DHT22;9585;51.018;4.282;2023-11-19T06:23:25;10.40;99.90
18906;DHT22;9585;51.018;4.282;2023-11-19T06:25:54;10.30;99.90
18906;DHT22;9585;51.018;4.282;2023-11-19T06:28:22;10.30;99.90
18906;DHT22;9585;51.018;4.282;2023-11-19T06:30:50;10.20;99.90
18906;DHT22;9585;51.018;4.282;2023-11-19T06:33:18;10.20;99.90
18906;DHT22;9585;51.018;4.282;2023-11-19T06:35:45;10.20;99.90
18906;DHT22;9585;51.018;4.282;2023-11-19T06:38:13;10.20;99.90
18906;DHT22;9585;51.018;4.282;2023-11-19T06:40:41;10.20;99.90
18906;DHT22;9585;51.018;4.282;2023-11-19T06:43:10;10.20;99.90
18906;DHT22;9585;51.018;4.282;2023-11-19T06:45:38;10.20;99.90
18906;DHT22;9585;51.018;4.282;2023-11-19T06:48:06;10.10;99.90
18906;DHT22;9585;51.018;4.282;2023-11-19T06:50:33;10.10;99.90
18906;DHT22;9585;51.018;4.282;2023-11-19T06:53:01;10.10;99.90
18906;DHT22;9585;51.018;4.282;2023-11-19T06:55:30;10.00;99.90
18906;DHT22;9585;51.018;4.282;2023-11-19T06:58:00;10.10;99.90
18906;DHT22;9585;51.018;4.282;2023-11-19T07:00:30;10.00;99.90
18906;DHT22;9585;51.018;4.282;2023-11-19T07:02:59;10.00;99.90
18906;DHT22;9585;51.018;4.282;2023-11-19T07:05:26;9.90;99.90
18906;DHT22;9585;51.018;4.282;2023-11-19T07:07:54;9.90;99.90
18906;DHT22;9585;51.018;4.282;2023-11-19T07:10:22;10.00;99.90
18906;DHT22;9585;51.018;4.282;2023-11-19T07:12:50;10.00;99.90
18906;DHT22;9585;51.018;4.282;2023-11-19T07:15:20;10.00;99.90
18906;DHT22;9585;51.018;4.282;2023-11-19T07:17:50;10.00;99.90
18906;DHT22;9585;51.018;4.282;2023-11-19T07:20:20;9.90;99.90
18906;DHT22;9585;51.018;4.282;2023-11-19T07:22:48;9.90;99.90
18906;DHT22;9585;51.018;4.282;2023-11-19T07:25:14;9.90;99.90
18906;DHT22;9585;51.018;4.282;2023-11-19T07:27:42;10.00;99.90
18906;DHT22;9585;51.018;4.282;2023-11-19T07:30:10;10.00;99.90
18906;DHT22;9585;51.018;4.282;2023-11-19T07:32:38;9.90;99.90
18906;DHT22;9585;51.018;4.282;2023-11-19T07:35:08;9.90;99.90
18906;DHT22;9585;51.018;4.282;2023-11-19T07:37:36;9.90;99.90
18906;DHT22;9585;51.018;4.282;2023-11-19T07:40:04;9.90;99.90
18906;DHT22;9585;51.018;4.282;2023-11-19T07:42:32;9.90;99.90
18906;DHT22;9585;51.018;4.282;2023-11-19T07:44:59;10.00;99.90
18906;DHT22;9585;51.018;4.282;2023-11-19T07:47:27;10.10;99.90
18906;DHT22;9585;51.018;4.282;2023-11-19T07:49:55;10.10;99.90
18906;DHT22;9585;51.018;4.282;2023-11-19T07:52:25;10.10;99.90
18906;DHT22;9585;51.018;4.282;2023-11-19T07:54:52;10.20;99.90
18906;DHT22;9585;51.018;4.282;2023-11-19T07:57:20;10.30;99.90
18906;DHT22;9585;51.018;4.282;2023-11-19T07:59:50;10.30;99.90
18906;DHT22;9585;51.018;4.282;2023-11-19T08:02:23;10.40;99.90
18906;DHT22;9585;51.018;4.282;2023-11-19T08:04:51;10.40;99.90
18906;DHT22;9585;51.018;4.282;2023-11-19T08:07:26;10.50;99.90
18906;DHT22;9585;51.018;4.282;2023-11-19T08:09:58;10.60;99.90
18906;DHT22;9585;51.018;4.282;2023-11-19T08:12:28;10.60;99.90
18906;DHT22;9585;51.018;4.282;2023-11-19T08:15:14;10.70;99.90
18906;DHT22;9585;51.018;4.282;2023-11-19T08:17:45;10.70;99.90
18906;DHT22;9585;51.018;4.282;2023-11-19T08:20:13;10.70;99.90
18906;DHT22;9585;51.018;4.282;2023-11-19T08:22:43;10.70;99.90
18906;DHT22;9585;51.018;4.282;2023-11-19T08:25:14;10.80;99.90
18906;DHT22;9585;51.018;4.282;2023-11-19T08:27:45;10.90;99.90
18906;DHT22;9585;51.018;4.282;2023-11-19T08:30:18;11.00;99.90
18906;DHT22;9585;51.018;4.282;2023-11-19T08:35:32;11.00;99.90
18906;DHT22;9585;51.018;4.282;2023-11-19T08:38:34;11.00;99.90
18906;DHT22;9585;51.018;4.282;2023-11-19T08:41:15;11.00;99.90
18906;DHT22;9585;51.018;4.282;2023-11-19T08:43:47;11.10;99.90
18906;DHT22;9585;51.018;4.282;2023-11-19T08:46:29;11.10;99.90
18906;DHT22;9585;51.018;4.282;2023-11-19T08:49:19;11.00;99.90
18906;DHT22;9585;51.018;4.282;2023-11-19T08:51:55;10.90;99.90
18906;DHT22;9585;51.018;4.282;2023-11-19T08:54:46;10.80;99.90
18906;DHT22;9585;51.018;4.282;2023-11-19T08:57:36;10.90;99.90
18906;DHT22;9585;51.018;4.282;2023-11-19T09:00:20;10.80;99.90
18906;DHT22;9585;51.018;4.282;2023-11-19T09:02:52;10.90;99.90
18906;DHT22;9585;51.018;4.282;2023-11-19T09:05:29;11.00;99.90
18906;DHT22;9585;51.018;4.282;2023-11-19T09:08:13;11.10;99.90
18906;DHT22;9585;51.018;4.282;2023-11-19T09:11:10;11.20;99.90
18906;DHT22;9585;51.018;4.282;2023-11-19T09:14:09;11.40;99.90
18906;DHT22;9585;51.018;4.282;2023-11-19T09:16:45;11.40;99.90
18906;DHT22;9585;51.018;4.282;2023-11-19T09:19:29;11.50;99.90
18906;DHT22;9585;51.018;4.282;2023-11-19T09:22:06;11.60;99.90
18906;DHT22;9585;51.018;4.282;2023-11-19T09:24:47;11.70;99.90
18906;DHT22;9585;51.018;4.282;2023-11-19T09:27:39;11.80;99.90
18906;DHT22;9585;51.018;4.282;2023-11-19T09:30:25;11.80;99.90
18906;DHT22;9585;51.018;4.282;2023-11-19T09:33:19;12.00;99.90
18906;DHT22;9585;51.018;4.282;2023-11-19T09:36:04;12.10;99.90
18906;DHT22;9585;51.018;4.282;2023-11-19T09:39:12;12.10;99.90
18906;DHT22;9585;51.018;4.282;2023-11-19T09:42:00;12.10;99.90
18906;DHT22;9585;51.018;4.282;2023-11-19T09:44:38;12.20;99.90
18906;DHT22;9585;51.018;4.282;2023-11-19T09:48:15;12.20;99.90
18906;DHT22;9585;51.018;4.282;2023-11-19T09:50:52;12.30;99.90
18906;DHT22;9585;51.018;4.282;2023-11-19T09:53:49;12.20;99.90
18906;DHT22;9585;51.018;4.282;2023-11-19T09:56:37;12.20;99.90
18906;DHT22;9585;51.018;4.282;2023-11-19T09:59:21;12.10;99.90
18906;DHT22;9585;51.018;4.282;2023-11-19T10:02:03;12.00;99.90
18906;DHT22;9585;51.018;4.282;2023-11-19T10:04:50;11.90;99.90
18906;DHT22;9585;51.018;4.282;2023-11-19T10:07:43;11.90;99.90
18906;DHT22;9585;51.018;4.282;2023-11-19T10:10:33;11.90;99.90
18906;DHT22;9585;51.018;4.282;2023-11-19T10:13:15;11.90;99.90
18906;DHT22;9585;51.018;4.282;2023-11-19T10:15:51;11.90;99.90
18906;DHT22;9585;51.018;4.282;2023-11-19T10:18:28;12.00;99.90
18906;DHT22;9585;51.018;4.282;2023-11-19T10:21:05;12.10;99.90
18906;DHT22;9585;51.018;4.282;2023-11-19T10:24:07;12.20;99.90
18906;DHT22;9585;51.018;4.282;2023-11-19T10:29:09;12.20;99.90
18906;DHT22;9585;51.018;4.282;2023-11-19T10:31:59;12.10;99.90
18906;DHT22;9585;51.018;4.282;2023-11-19T10:34:42;12.10;99.90
18906;DHT22;9585;51.018;4.282;2023-11-19T10:37:31;12.00;99.90
18906;DHT22;9585;51.018;4.282;2023-11-19T10:40:17;12.00;99.90
18906;DHT22;9585;51.018;4.282;2023-11-19T10:43:12;12.10;99.90
18906;DHT22;9585;51.018;4.282;2023-11-19T10:45:46;12.00;99.90
18906;DHT22;9585;51.018;4.282;2023-11-19T10:48:27;12.00;99.90
18906;DHT22;9585;51.018;4.282;2023-11-19T10:51:17;12.00;99.90
18906;DHT22;9585;51.018;4.282;2023-11-19T10:53:55;12.00;99.90
18906;DHT22;9585;51.018;4.282;2023-11-19T10:56:31;12.00;99.90
18906;DHT22;9585;51.018;4.282;2023-11-19T10:59:09;12.00;99.90
18906;DHT22;9585;51.018;4.282;2023-11-19T11:01:45;12.10;99.90
18906;DHT22;9585;51.018;4.282;2023-11-19T11:04:22;12.30;99.90
18906;DHT22;9585;51.018;4.282;2023-11-19T11:07:06;12.60;99.90
18906;DHT22;9585;51.018;4.282;2023-11-19T11:09:53;12.60;99.90
18906;DHT22;9585;51.018;4.282;2023-11-19T11:12:26;12.70;99.90
18906;DHT22;9585;51.018;4.282;2023-11-19T11:14:54;12.70;99.90
18906;DHT22;9585;51.018;4.282;2023-11-19T11:17:28;12.70;99.90
18906;DHT22;9585;51.018;4.282;2023-11-19T11:19:58;12.70;99.90
18906;DHT22;9585;51.018;4.282;2023-11-19T11:22:41;12.90;99.90
18906;DHT22;9585;51.018;4.282;2023-11-19T11:25:28;13.00;99.90
18906;DHT22;9585;51.018;4.282;2023-11-19T11:28:18;12.90;99.90
18906;DHT22;9585;51.018;4.282;2023-11-19T11:31:23;13.00;99.90
18906;DHT22;9585;51.018;4.282;2023-11-19T11:34:28;12.90;99.90
18906;DHT22;9585;51.018;4.282;2023-11-19T11:37:14;12.90;99.90
18906;DHT22;9585;51.018;4.282;2023-11-19T11:39:46;12.90;99.90
18906;DHT22;9585;51.018;4.282;2023-11-19T11:42:34;13.00;99.90
18906;DHT22;9585;51.018;4.282;2023-11-19T11:45:07;13.10;99.90
18906;DHT22;9585;51.018;4.282;2023-11-19T11:48:11;13.10;99.90
18906;DHT22;9585;51.018;4.282;2023-11-19T11:50:52;12.80;99.90
18906;DHT22;9585;51.018;4.282;2023-11-19T11:53:32;12.80;99.90
18906;DHT22;9585;51.018;4.282;2023-11-19T11:56:08;12.80;99.90
18906;DHT22;9585;51.018;4.282;2023-11-19T11:58:45;12.60;99.90
18906;DHT22;9585;51.018;4.282;2023-11-19T12:01:38;12.60;99.90
18906;DHT22;9585;51.018;4.282;2023-11-19T12:04:36;12.50;99.90
18906;DHT22;9585;51.018;4.282;2023-11-19T12:07:25;12.40;99.90
18906;DHT22;9585;51.018;4.282;2023-11-19T12:10:16;12.40;99.90
18906;DHT22;9585;51.018;4.282;2023-11-19T12:16:20;12.20;99.90
18906;DHT22;9585;51.018;4.282;2023-11-19T12:19:38;12.00;99.90
18906;DHT22;9585;51.018;4.282;2023-11-19T12:22:25;11.90;99.90
18906;DHT22;9585;51.018;4.282;2023-11-19T12:25:02;11.90;99.90
18906;DHT22;9585;51.018;4.282;2023-11-19T12:28:02;12.00;99.90
18906;DHT22;9585;51.018;4.282;2023-11-19T12:31:07;12.00;99.90
18906;DHT22;9585;51.018;4.282;2023-11-19T12:33:58;12.10;99.90
18906;DHT22;9585;51.018;4.282;2023-11-19T12:36:54;12.00;99.90
18906;DHT22;9585;51.018;4.282;2023-11-19T12:39:32;11.90;99.90
18906;DHT22;9585;51.018;4.282;2023-11-19T12:42:01;12.00;99.90
18906;DHT22;9585;51.018;4.282;2023-11-19T12:44:33;12.10;99.90
18906;DHT22;9585;51.018;4.282;2023-11-19T12:47:21;12.10;99.90
18906;DHT22;9585;51.018;4.282;2023-11-19T12:49:59;12.10;99.90
18906;DHT22;9585;51.018;4.282;2023-11-19T12:52:29;12.10;99.90
18906;DHT22;9585;51.018;4.282;2023-11-19T12:57:53;11.80;99.90
18906;DHT22;9585;51.018;4.282;2023-11-19T13:00:22;11.80;99.90
18906;DHT22;9585;51.018;4.282;2023-11-19T13:02:57;11.80;99.90
18906;DHT22;9585;51.018;4.282;2023-11-19T13:05:43;11.70;99.90
18906;DHT22;9585;51.018;4.282;2023-11-19T13:08:14;11.70;99.90
18906;DHT22;9585;51.018;4.282;2023-11-19T13:14:00;11.50;99.90
18906;DHT22;9585;51.018;4.282;2023-11-19T13:23:08;11.40;99.90
18906;DHT22;9585;51.018;4.282;2023-11-19T13:25:57;11.30;99.90
18906;DHT22;9585;51.018;4.282;2023-11-19T13:28:39;11.40;99.90
18906;DHT22;9585;51.018;4.282;2023-11-19T13:31:24;11.50;99.90
18906;DHT22;9585;51.018;4.282;2023-11-19T13:34:21;11.60;99.90
18906;DHT22;9585;51.018;4.282;2023-11-19T13:37:06;11.70;99.90
18906;DHT22;9585;51.018;4.282;2023-11-19T13:39:48;11.80;99.90
18906;DHT22;9585;51.018;4.282;2023-11-19T13:42:22;11.80;99.90
18906;DHT22;9585;51.018;4.282;2023-11-19T13:44:50;11.70;99.90
18906;DHT22;9585;51.018;4.282;2023-11-19T13:47:22;11.70;99.90
18906;DHT22;9585;51.018;4.282;2023-11-19T13:49:56;11.70;99.90
18906;DHT22;9585;51.018;4.282;2023-11-19T13:52:27;11.70;99.90
18906;DHT22;9585;51.018;4.282;2023-11-19T13:54:57;11.70;99.90
18906;DHT22;9585;51.018;4.282;2023-11-19T13:57:26;11.70;99.90
18906;DHT22;9585;51.018;4.282;2023-11-19T13:59:58;11.70;99.90
18906;DHT22;9585;51.018;4.282;2023-11-19T14:02:39;11.70;99.90
18906;DHT22;9585;51.018;4.282;2023-11-19T14:05:07;11.70;99.90
18906;DHT22;9585;51.018;4.282;2023-11-19T14:07:45;11.70;99.90
18906;DHT22;9585;51.018;4.282;2023-11-19T14:10:38;11.80;99.90
18906;DHT22;9585;51.018;4.282;2023-11-19T14:13:14;11.70;99.90
18906;DHT22;9585;51.018;4.282;2023-11-19T14:15:55;11.80;99.90
18906;DHT22;9585;51.018;4.282;2023-11-19T14:18:38;11.70;99.90
18906;DHT22;9585;51.018;4.282;2023-11-19T14:21:10;11.70;99.90
18906;DHT22;9585;51.018;4.282;2023-11-19T14:23:58;11.50;99.90
18906;DHT22;9585;51.018;4.282;2023-11-19T14:41:39;10.90;99.90
18906;DHT22;9585;51.018;4.282;2023-11-19T14:44:39;10.80;99.90
18906;DHT22;9585;51.018;4.282;2023-11-19T14:47:11;10.90;99.90
18906;DHT22;9585;51.018;4.282;2023-11-19T14:49:52;10.80;99.90
18906;DHT22;9585;51.018;4.282;2023-11-19T14:52:22;10.70;99.90
18906;DHT22;9585;51.018;4.282;2023-11-19T14:54:59;10.70;99.90
18906;DHT22;9585;51.018;4.282;2023-11-19T14:57:32;10.70;99.90
18906;DHT22;9585;51.018;4.282;2023-11-19T15:00:09;10.70;99.90
18906;DHT22;9585;51.018;4.282;2023-11-19T15:02:49;10.80;99.90
18906;DHT22;9585;51.018;4.282;2023-11-19T15:05:18;10.80;99.90
18906;DHT22;9585;51.018;4.282;2023-11-19T15:10:48;10.90;99.90
18906;DHT22;9585;51.018;4.282;2023-11-19T15:13:34;10.90;99.90
18906;DHT22;9585;51.018;4.282;2023-11-19T15:16:23;10.90;99.90
18906;DHT22;9585;51.018;4.282;2023-11-19T15:18:57;10.90;99.90
18906;DHT22;9585;51.018;4.282;2023-11-19T15:21:32;10.90;99.90
18906;DHT22;9585;51.018;4.282;2023-11-19T15:24:03;10.90;99.90
18906;DHT22;9585;51.018;4.282;2023-11-19T15:26:38;10.90;99.90
18906;DHT22;9585;51.018;4.282;2023-11-19T15:29:13;10.90;99.90
18906;DHT22;9585;51.018;4.282;2023-11-19T15:31:54;10.90;99.90
18906;DHT22;9585;51.018;4.282;2023-11-19T15:37:25;10.80;99.90
18906;DHT22;9585;51.018;4.282;2023-11-19T15:40:08;10.90;99.90
18906;DHT22;9585;51.018;4.282;2023-11-19T15:42:50;10.90;99.90
18906;DHT22;9585;51.018;4.282;2023-11-19T15:45:23;10.90;99.90
18906;DHT22;9585;51.018;4.282;2023-11-19T15:47:54;10.90;99.90
18906;DHT22;9585;51.018;4.282;2023-11-19T15:50:37;10.90;99.90
18906;DHT22;9585;51.018;4.282;2023-11-19T15:53:10;10.90;99.90
18906;DHT22;9585;51.018;4.282;2023-11-19T15:55:47;10.90;99.90
18906;DHT22;9585;51.018;4.282;2023-11-19T15:58:22;10.80;99.90
18906;DHT22;9585;51.018;4.282;2023-11-19T16:00:53;10.80;99.90
18906;DHT22;9585;51.018;4.282;2023-11-19T16:03:22;10.80;99.90
18906;DHT22;9585;51.018;4.282;2023-11-19T16:05:50;10.80;99.90
18906;DHT22;9585;51.018;4.282;2023-11-19T16:08:21;10.80;99.90
18906;DHT22;9585;51.018;4.282;2023-11-19T16:10:53;10.80;99.90
18906;DHT22;9585;51.018;4.282;2023-11-19T16:13:28;10.80;99.90
18906;DHT22;9585;51.018;4.282;2023-11-19T16:15:56;10.70;99.90
18906;DHT22;9585;51.018;4.282;2023-11-19T16:18:33;10.60;99.90
18906;DHT22;9585;51.018;4.282;2023-11-19T16:21:17;10.50;99.90
18906;DHT22;9585;51.018;4.282;2023-11-19T16:23:45;10.50;99.90
18906;DHT22;9585;51.018;4.282;2023-11-19T16:26:14;10.50;99.90
18906;DHT22;9585;51.018;4.282;2023-11-19T16:29:06;10.40;99.90
18906;DHT22;9585;51.018;4.282;2023-11-19T16:31:34;10.40;99.90
18906;DHT22;9585;51.018;4.282;2023-11-19T16:34:08;10.30;99.90
18906;DHT22;9585;51.018;4.282;2023-11-19T16:37:16;10.20;99.90
18906;DHT22;9585;51.018;4.282;2023-11-19T16:39:52;10.30;99.90
18906;DHT22;9585;51.018;4.282;2023-11-19T16:42:38;10.30;99.90
18906;DHT22;9585;51.018;4.282;2023-11-19T16:45:15;10.20;99.90
18906;DHT22;9585;51.018;4.282;2023-11-19T16:47:44;10.20;99.90
18906;DHT22;9585;51.018;4.282;2023-11-19T16:50:17;10.20;99.90
18906;DHT22;9585;51.018;4.282;2023-11-19T16:52:50;10.10;99.90
18906;DHT22;9585;51.018;4.282;2023-11-19T16:55:18;10.20;99.90
18906;DHT22;9585;51.018;4.282;2023-11-19T16:57:48;10.20;99.90
18906;DHT22;9585;51.018;4.282;2023-11-19T17:00:23;10.20;99.90
18906;DHT22;9585;51.018;4.282;2023-11-19T17:03:05;10.20;99.90
18906;DHT22;9585;51.018;4.282;2023-11-19T17:05:36;10.20;99.90
18906;DHT22;9585;51.018;4.282;2023-11-19T17:08:07;10.30;99.90
18906;DHT22;9585;51.018;4.282;2023-11-19T17:10:35;10.30;99.90
18906;DHT22;9585;51.018;4.282;2023-11-19T17:13:12;10.30;99.90
18906;DHT22;9585;51.018;4.282;2023-11-19T17:15:54;10.40;99.90